TimeCDT,TemperatureF,Dew PointF,Humidity,Sea Level PressureIn,VisibilityMPH,Wind Direction,Wind SpeedMPH,Gust SpeedMPH,PrecipitationIn,Events,Conditions,WindDirDegrees,DateUTC
12:58 AM,59.9,53.8,80,30.21,10.0,NE,3.5,-,N/A,,Overcast,40,2013-05-26 05:58:00
1:58 AM,61.3,52.2,72,30.19,10.0,East,3.5,-,N/A,,Mostly Cloudy,90,2013-05-26 06:58:00
2:58 AM,61.2,51.6,71,30.20,10.0,East,4.6,-,N/A,,Overcast,80,2013-05-26 07:58:00
3:58 AM,61.7,51.4,69,30.21,10.0,East,5.8,-,N/A,,Overcast,90,2013-05-26 08:58:00
4:58 AM,61.7,52.0,70,30.21,10.0,ESE,10.4,-,N/A,,Overcast,110,2013-05-26 09:58:00
5:58 AM,60.1,52.7,77,30.23,10.0,ENE,5.8,-,N/A,,Partly Cloudy,70,2013-05-26 10:58:00
6:58 AM,61.0,53.4,76,30.23,10.0,East,9.2,-,N/A,,Clear,90,2013-05-26 11:58:00
7:58 AM,64.0,53.1,67,30.23,10.0,ESE,8.1,-,N/A,,Clear,110,2013-05-26 12:58:00
8:58 AM,67.6,52.5,58,30.23,10.0,ESE,10.4,-,N/A,,Clear,120,2013-05-26 13:58:00
9:58 AM,70.9,53.2,54,30.24,10.0,SE,5.8,-,N/A,,Clear,140,2013-05-26 14:58:00
10:58 AM,73.9,54.0,50,30.23,10.0,ESE,3.5,-,N/A,,Clear,120,2013-05-26 15:58:00
11:58 AM,76.1,54.0,46,30.23,10.0,Variable,2.3,-,N/A,,Clear,0,2013-05-26 16:58:00
12:58 PM,77.9,54.9,45,30.22,7.0,SE,4.6,-,N/A,,Partly Cloudy,130,2013-05-26 17:58:00
1:58 PM,78.1,57.2,49,30.20,10.0,Variable,5.8,-,N/A,,Mostly Cloudy,0,2013-05-26 18:58:00
2:58 PM,80.2,57.7,46,30.18,10.0,Variable,2.3,-,N/A,,Partly Cloudy,0,2013-05-26 19:58:00
3:58 PM,80.2,58.6,48,30.16,10.0,Variable,2.3,-,N/A,,Clear,0,2013-05-26 20:58:00
4:58 PM,80.8,59.7,49,30.14,10.0,South,4.6,-,N/A,,Clear,170,2013-05-26 21:58:00
5:58 PM,79.7,60.3,51,30.12,10.0,SSE,4.6,-,N/A,,Clear,150,2013-05-26 22:58:00
6:58 PM,78.6,59.4,51,30.12,10.0,ESE,6.9,-,N/A,,Clear,120,2013-05-26 23:58:00
7:58 PM,76.1,60.3,58,30.12,10.0,ESE,2.3,-,N/A,,Clear,120,2013-05-27 00:58:00
8:21 PM,75.2,60.8,61,30.12,10.0,ESE,2.3,-,N/A,,Light Drizzle,110,2013-05-27 01:21:00
8:34 PM,75.2,60.8,61,30.12,10.0,ESE,2.3,-,N/A,,Clear,120,2013-05-27 01:34:00
8:58 PM,73.4,60.8,65,30.12,10.0,ESE,3.5,-,0.00,,Clear,110,2013-05-27 01:58:00
9:58 PM,71.2,60.8,69,30.13,10.0,ESE,3.5,-,N/A,,Clear,120,2013-05-27 02:58:00
10:58 PM,70.5,58.5,66,30.13,10.0,SE,4.6,-,N/A,,Clear,130,2013-05-27 03:58:00